Time;durP1;ratioP1;P1;durP2;ratioP2;P2;SDS_P1;SDS_P2;PMS_P1;PMS_P2;Temp;Humidity;BMP_temperature;BMP_pressure;BME280_temperature;BME280_humidity;BME280_pressure;Samples;Min_cycle;Max_cycle;Signal;HPM_P1;HPM_P2
2021/12/12 00:01:53;;;;;;;;;;;;;;;22.64;39.89;100010.77;101000;1366;73828;-83
2021/12/12 00:04:43;;;;;;;;;;;;;;;;;;;;;
2021/12/12 00:07:22;;;;;;;;;;;;;;;;;;;;;
2021/12/12 00:10:07;;;;;;;;;;;;;;;;;;;;;
2021/12/12 00:12:44;;;;;;;;;;;;;;;22.64;39.95;100008.02;101651;1355;72884;-82
2021/12/12 00:15:15;;;;;;;;;;;;;;;22.65;39.96;100009.59;101604;1360;75842;-83
2021/12/12 00:17:44;;;;;;;;;;;;;;;22.64;39.90;100002.63;101571;1354;61287;-82
2021/12/12 00:20:17;;;;;;;;;;;;;;;22.64;39.90;99999.39;101564;1357;61416;-83
2021/12/12 00:22:58;;;;;;;;;;;;;;;;;;;;;
2021/12/12 00:25:45;;;;;;;;;;;;;;;22.65;39.96;100003.64;101357;1357;74654;-82
2021/12/12 00:28:21;;;;;;;;;;;;;;;22.65;39.92;100005.63;101640;1360;61662;-83
2021/12/12 00:31:13;;;;;;;;;;;;;;;22.65;39.82;100008.14;101762;1351;61199;-83
2021/12/12 00:33:54;;;;;;;;;;;;;;;22.65;39.93;100009.05;101797;1355;72945;-83
2021/12/12 00:36:33;;;;;;;;;;;;;;;;;;;;;
2021/12/12 00:39:34;;;;;;;;;;;;;;;22.65;39.85;99995.06;101566;1357;61867;-84
2021/12/12 00:42:17;;;;;;;;;;;;;;;22.65;39.91;100004.33;101649;1357;61284;-84
2021/12/12 00:45:37;;;;;;;;;;;;;;;22.66;39.95;100003.23;101599;1354;72777;-84
2021/12/12 00:48:08;;;;;;;;;;;;;;;22.65;40.01;99998.58;101613;1354;73620;-84
2021/12/12 00:50:52;;;;;;;;;;;;;;;22.66;39.92;99994.05;101588;1354;61330;-84
2021/12/12 00:53:40;;;;;;;;;;;;;;;22.66;40.06;99989.36;101588;1360;61293;-84
2021/12/12 00:56:12;;;;;;;;;;;;;;;22.67;39.88;99985.38;101622;1360;72918;-84
2021/12/12 00:59:05;;;;;;;;;;;;;;;22.66;39.98;99976.98;101572;1354;75986;-84
2021/12/12 01:01:53;;;;;;;;;;;;;;;;;;;;;
2021/12/12 01:04:36;;;;;;;;;;;;;;;;;;;;;
2021/12/12 01:07:32;;;;;;;;;;;;;;;22.67;39.84;99964.93;101591;1354;73937;-84
2021/12/12 01:10:31;;;;;;;;;;;;;;;22.67;39.98;99955.21;101068;1366;73747;-83
2021/12/12 01:13:38;;;;;;;;;;;;;;;;;;;;;
2021/12/12 01:17:03;;;;;;;;;;;;;;;;;;;;;
2021/12/12 01:20:03;;;;;;;;;;;;;;;;;;;;;
2021/12/12 01:22:56;;;;;;;;;;;;;;;22.68;39.96;99955.84;101073;1362;74588;-83
2021/12/12 01:26:05;;;;;;;;;;;;;;;22.68;40.05;99943.46;101050;1366;61482;-83
2021/12/12 01:28:42;;;;;;;;;;;;;;;22.68;39.91;99936.98;101042;1362;60410;-82
2021/12/12 01:31:35;;;;;;;;;;;;;;;;;;;;;
2021/12/12 01:34:24;;;;;;;;;;;;;;;22.69;39.96;99943.70;100916;1368;74503;-83
2021/12/12 01:40:28;;;;;;;;;;;;;;;22.69;39.92;99931.52;100822;1362;61855;-83
2021/12/12 01:43:39;;;;;;;;;;;;;;;22.69;39.98;99926.48;100804;1366;71703;-84
2021/12/12 01:46:36;;;;;;;;;;;;;;;22.70;40.02;99924.80;101014;1366;74511;-83
2021/12/12 01:49:39;;;;;;;;;;;;;;;22.70;39.99;99919.56;101288;1360;61444;-83
2021/12/12 01:52:29;;;;;;;;;;;;;;;22.70;40.12;99916.14;100956;1363;61206;-83
2021/12/12 01:55:23;;;;;;;;;;;;;;;22.70;40.06;99911.33;100663;1370;72617;-84
2021/12/12 01:57:59;;;;;;;;;;;;;;;;;;;;;
2021/12/12 02:00:39;;;;;;;;;;;;;;;22.70;40.10;99901.61;100930;1363;61464;-83
2021/12/12 02:03:28;;;;;;;;;;;;;;;22.70;39.99;99892.82;101034;1367;62311;-82
2021/12/12 02:06:04;;;;;;;;;;;;;;;22.70;40.00;99881.58;100998;1362;73918;-83
2021/12/12 02:08:36;;;;;;;;;;;;;;;22.70;39.86;99880.69;100708;1369;75664;-83
2021/12/12 02:11:12;;;;;;;;;;;;;;;22.70;40.14;99872.98;101111;1363;61345;-83
2021/12/12 02:14:13;;;;;;;;;;;;;;;22.70;39.95;99865.55;101104;1366;61979;-84
2021/12/12 02:17:01;;;;;;;;;;;;;;;22.70;40.01;99860.94;101097;1367;73026;-84
2021/12/12 02:35:36;;;;;;;;;;;;;;;;;;;;;
2021/12/12 02:38:22;;;;;;;;;;;;;;;22.71;39.83;99843.80;100853;1362;61426;-81
2021/12/12 02:41:42;;;;;;;;;;;;;;;22.71;39.88;99847.93;100648;1366;71515;-83
2021/12/12 02:44:36;;;;;;;;;;;;;;;22.71;39.87;99846.11;100754;1363;76090;-83
2021/12/12 02:47:24;;;;;;;;;;;;;;;;;;;;;
2021/12/12 02:50:42;;;;;;;;;;;;;;;22.72;39.93;99840.88;100776;1362;61203;-84
2021/12/12 02:53:19;;;;;;;;;;;;;;;22.72;39.98;99842.26;100665;1369;74631;-83
2021/12/12 02:55:58;;;;;;;;;;;;;;;22.73;39.85;99842.02;100655;1365;75881;-84
2021/12/12 02:58:35;;;;;;;;;;;;;;;22.73;39.96;99843.80;100471;1365;61432;-84
2021/12/12 03:01:47;;;;;;;;;;;;;;;22.73;39.97;99840.22;101450;1357;61211;-83
2021/12/12 03:05:04;;;;;;;;;;;;;;;;;;;;;
2021/12/12 03:07:38;;;;;;;;;;;;;;;22.73;40.12;99838.27;101575;1357;75830;-83
2021/12/12 03:10:20;;;;;;;;;;;;;;;22.73;40.08;99828.35;101527;1357;61545;-83
2021/12/12 03:12:48;;;;;;;;;;;;;;;22.72;40.04;99828.77;101479;1357;61740;-83
2021/12/12 03:15:44;;;;;;;;;;;;;;;22.73;40.13;99823.88;101518;1355;71595;-83
2021/12/12 03:18:56;;;;;;;;;;;;;;;22.73;40.09;99824.61;101532;1357;73527;-83
2021/12/12 03:21:37;;;;;;;;;;;;;;;22.73;40.09;99820.79;101020;1366;61229;-83
2021/12/12 03:24:27;;;;;;;;;;;;;;;;;;;;;
2021/12/12 03:27:00;;;;;;;;;;;;;;;22.74;40.06;99801.42;101091;1363;73087;-83
2021/12/12 03:29:58;;;;;;;;;;;;;;;22.74;40.12;99797.98;101052;1363;75927;-83
2021/12/12 03:32:43;;;;;;;;;;;;;;;22.74;39.94;99795.80;101028;1363;61367;-83
2021/12/12 03:35:43;;;;;;;;;;;;;;;22.74;40.02;99799.39;101106;1362;61380;-83
2021/12/12 03:38:16;;;;;;;;;;;;;;;22.74;39.97;99795.97;101136;1361;72884;-83
2021/12/12 03:41:11;;;;;;;;;;;;;;;22.74;40.15;99794.35;101134;1363;75737;-82
2021/12/12 03:44:05;;;;;;;;;;;;;;;22.74;40.02;99796.52;101559;1360;61395;-83
2021/12/12 03:46:44;;;;;;;;;;;;;;;22.75;40.16;99795.20;101353;1363;61221;-83
2021/12/12 03:49:27;;;;;;;;;;;;;;;22.75;39.98;99801.83;101464;1363;72759;-83
2021/12/12 03:52:24;;;;;;;;;;;;;;;22.75;40.06;99803.98;101558;1357;75965;-83
2021/12/12 03:55:02;;;;;;;;;;;;;;;;;;;;;
2021/12/12 03:57:48;;;;;;;;;;;;;;;22.75;39.96;99810.04;101555;1354;61258;-83
2021/12/12 04:00:40;;;;;;;;;;;;;;;22.75;40.00;99821.15;101884;1354;73304;-82
2021/12/12 04:03:17;;;;;;;;;;;;;;;22.76;39.91;99820.95;101894;1354;74895;-82
2021/12/12 04:06:12;;;;;;;;;;;;;;;22.76;40.01;99821.84;101900;1352;61212;-82
2021/12/12 04:08:38;;;;;;;;;;;;;;;22.76;40.01;99818.54;101924;1348;61463;-84
2021/12/12 04:11:38;;;;;;;;;;;;;;;22.76;40.03;99813.75;101898;1348;72826;-83
2021/12/12 04:14:15;;;;;;;;;;;;;;;22.76;40.02;99812.68;101869;1354;74660;-84
2021/12/12 04:16:58;;;;;;;;;;;;;;;22.76;39.97;99807.61;101923;1352;61298;-84
2021/12/12 04:19:37;;;;;;;;;;;;;;;22.77;39.99;99808.83;101894;1354;61226;-84
2021/12/12 04:22:02;;;;;;;;;;;;;;;22.77;40.20;99824.23;101890;1354;73051;-81
2021/12/12 04:25:06;;;;;;;;;;;;;;;;;;;;;
2021/12/12 04:27:59;;;;;;;;;;;;;;;;;;;;;
2021/12/12 04:30:45;;;;;;;;;;;;;;;22.77;40.15;99854.53;101936;1354;61163;-83
2021/12/12 04:33:37;;;;;;;;;;;;;;;;;;;;;
2021/12/12 04:36:21;;;;;;;;;;;;;;;22.78;40.12;99874.20;101917;1349;74819;-83
2021/12/12 04:39:26;;;;;;;;;;;;;;;22.79;40.14;99883.10;101753;1356;61310;-83
2021/12/12 04:42:02;;;;;;;;;;;;;;;22.79;40.09;99886.65;101873;1351;61918;-83
2021/12/12 04:44:40;;;;;;;;;;;;;;;22.80;40.15;99885.73;101877;1355;71562;-82
2021/12/12 04:50:54;;;;;;;;;;;;;;;22.80;40.31;99897.52;101557;1360;61303;-82
2021/12/12 04:53:51;;;;;;;;;;;;;;;22.80;40.35;99894.34;100971;1363;61470;-83
2021/12/12 04:56:47;;;;;;;;;;;;;;;22.80;40.24;99879.77;100540;1372;73461;-83
2021/12/12 04:59:38;;;;;;;;;;;;;;;22.81;40.51;99881.15;100623;1370;73777;-82
2021/12/12 05:02:17;;;;;;;;;;;;;;;22.81;40.32;99884.19;100239;1372;61352;-83
2021/12/12 05:05:13;;;;;;;;;;;;;;;22.80;40.33;99862.50;100239;1372;61521;-83
2021/12/12 05:07:58;;;;;;;;;;;;;;;22.80;40.35;99867.70;100199;1376;73931;-83
2021/12/12 05:11:24;;;;;;;;;;;;;;;22.80;40.25;99859.64;100200;1375;73695;-83
2021/12/12 05:14:07;;;;;;;;;;;;;;;;;;;;;
2021/12/12 05:16:56;;;;;;;;;;;;;;;22.81;40.25;99872.08;100122;1372;61597;-83
2021/12/12 05:19:53;;;;;;;;;;;;;;;22.82;40.32;99909.91;100218;1372;71609;-84
2021/12/12 05:22:42;;;;;;;;;;;;;;;22.83;40.59;99919.38;100205;1377;75936;-83
2021/12/12 05:25:17;;;;;;;;;;;;;;;22.83;40.38;99926.55;99593;1381;61381;-82
2021/12/12 05:28:10;;;;;;;;;;;;;;;;;;;;;
2021/12/12 05:30:39;;;;;;;;;;;;;;;22.82;40.41;99949.14;100046;1375;72798;-83
2021/12/12 05:33:27;;;;;;;;;;;;;;;22.82;40.21;99947.17;100406;1367;75746;-83
2021/12/12 05:36:43;;;;;;;;;;;;;;;22.83;40.26;99948.95;100192;1377;61496;-83
2021/12/12 05:39:30;;;;;;;;;;;;;;;22.83;40.49;99951.25;99938;1371;62424;-83
2021/12/12 05:42:18;;;;;;;;;;;;;;;22.83;40.46;99960.05;99883;1374;73968;-84
2021/12/12 05:45:07;;;;;;;;;;;;;;;22.83;40.48;99961.42;99789;1381;74858;-83
2021/12/12 05:47:44;;;;;;;;;;;;;;;22.83;40.37;99963.42;99405;1386;61267;-83
2021/12/12 05:50:38;;;;;;;;;;;;;;;22.84;40.39;99964.30;99345;1380;61368;-83
2021/12/12 05:53:37;;;;;;;;;;;;;;;22.84;40.52;99958.54;99423;1380;74035;-84
2021/12/12 05:56:17;;;;;;;;;;;;;;;22.84;40.50;99962.48;99405;1383;75313;-84
2021/12/12 05:59:04;;;;;;;;;;;;;;;22.84;40.50;99967.99;99370;1384;61385;-83
2021/12/12 06:01:42;;;;;;;;;;;;;;;22.84;40.47;99981.06;99447;1380;61377;-84
2021/12/12 06:04:28;;;;;;;;;;;;;;;22.84;40.41;99977.70;99862;1381;72876;-83
2021/12/12 06:07:03;;;;;;;;;;;;;;;22.84;40.50;99983.58;99905;1378;75765;-82
2021/12/12 06:09:39;;;;;;;;;;;;;;;22.84;40.36;99984.67;99851;1375;61504;-83
2021/12/12 06:12:28;;;;;;;;;;;;;;;22.84;40.34;99996.86;99925;1378;61826;-82
2021/12/12 06:14:57;;;;;;;;;;;;;;;22.85;40.48;100002.33;100363;1373;73903;-82
2021/12/12 06:17:57;;;;;;;;;;;;;;;22.86;40.48;100004.63;101181;1360;74940;-82
2021/12/12 06:20:23;;;;;;;;;;;;;;;22.85;40.57;100010.39;101417;1357;61215;-83
2021/12/12 06:23:17;;;;;;;;;;;;;;;22.86;40.57;100002.98;101560;1357;61213;-83
2021/12/12 06:26:03;;;;;;;;;;;;;;;22.86;40.53;100011.36;101702;1357;75185;-83
2021/12/12 06:28:41;;;;;;;;;;;;;;;22.86;40.51;100009.81;101882;1355;74764;-83
2021/12/12 06:31:27;;;;;;;;;;;;;;;22.87;40.54;100024.59;101840;1351;61304;-83
2021/12/12 06:34:12;;;;;;;;;;;;;;;22.87;40.75;100030.48;101927;1354;61337;-84
2021/12/12 06:36:47;;;;;;;;;;;;;;;22.87;40.66;100041.65;101897;1355;75493;-83
2021/12/12 06:39:25;;;;;;;;;;;;;;;22.88;40.66;100039.21;101896;1352;75776;-83
2021/12/12 06:41:56;;;;;;;;;;;;;;;22.88;40.65;100033.80;101936;1352;61272;-83
2021/12/12 06:44:47;;;;;;;;;;;;;;;22.89;40.71;100028.02;101943;1352;62055;-83
2021/12/12 06:47:21;;;;;;;;;;;;;;;22.88;40.53;100029.30;101637;1353;73914;-83
2021/12/12 06:50:11;;;;;;;;;;;;;;;;;;;;;
2021/12/12 06:52:59;;;;;;;;;;;;;;;22.90;40.74;100051.45;101679;1354;61443;-83
2021/12/12 06:55:48;;;;;;;;;;;;;;;22.90;40.64;100057.14;101583;1360;61220;-83
2021/12/12 06:58:15;;;;;;;;;;;;;;;22.91;40.52;100060.84;101606;1358;72692;-84
2021/12/12 07:01:04;;;;;;;;;;;;;;;22.91;40.71;100066.23;101646;1357;75661;-84
2021/12/12 07:03:33;;;;;;;;;;;;;;;22.91;40.61;100071.92;101298;1366;61278;-82
2021/12/12 07:06:24;;;;;;;;;;;;;;;22.92;40.69;100082.67;101352;1363;61753;-82
2021/12/12 07:09:07;;;;;;;;;;;;;;;22.92;40.56;100088.75;100292;1366;476840;-83
2021/12/12 07:11:41;;;;;;;;;;;;;;;22.92;40.69;100094.80;100655;1369;74814;-83
2021/12/12 07:14:18;;;;;;;;;;;;;;;22.92;40.61;100108.27;100653;1371;61335;-83
2021/12/12 07:17:14;;;;;;;;;;;;;;;22.93;40.60;100114.86;100659;1369;61487;-83
2021/12/12 07:20:11;;;;;;;;;;;;;;;22.93;40.47;100110.52;100626;1366;73840;-83
2021/12/12 07:22:40;;;;;;;;;;;;;;;22.93;40.73;100114.67;100678;1370;75265;-83
2021/12/12 07:25:35;;;;;;;;;;;;;;;22.93;40.67;100115.89;100998;1360;62185;-83
2021/12/12 07:28:07;;;;;;;;;;;;;;;22.94;40.65;100121.95;101025;1361;61350;-83
2021/12/12 07:30:39;;;;;;;;;;;;;;;22.94;40.67;100119.23;100964;1369;74036;-83
2021/12/12 07:33:07;;;;;;;;;;;;;;;22.94;40.72;100120.62;101058;1363;74901;-83
2021/12/12 07:35:50;;;;;;;;;;;;;;;22.94;40.77;100121.70;101073;1362;61428;-82
2021/12/12 07:38:26;;;;;;;;;;;;;;;22.95;40.62;100126.48;101103;1366;61529;-83
2021/12/12 07:41:13;;;;;;;;;;;;;;;;;;;;;
2021/12/12 07:43:48;;;;;;;;;;;;;;;22.95;40.68;100133.29;101544;1361;76030;-83
2021/12/12 07:46:23;;;;;;;;;;;;;;;22.96;40.73;100137.54;101629;1357;61380;-83
2021/12/12 07:49:04;;;;;;;;;;;;;;;22.96;40.65;100137.70;101796;1354;61189;-83
2021/12/12 07:51:36;;;;;;;;;;;;;;;22.97;40.62;100145.41;101894;1355;73599;-85
2021/12/12 07:54:28;;;;;;;;;;;;;;;22.96;40.73;100143.46;101867;1356;74938;-83
2021/12/12 07:57:08;;;;;;;;;;;;;;;22.96;40.65;100153.52;101620;1360;61222;-82
2021/12/12 07:59:41;;;;;;;;;;;;;;;22.97;40.79;100158.68;101606;1360;61183;-82
2021/12/12 08:02:36;;;;;;;;;;;;;;;22.97;40.76;100154.55;101621;1360;71643;-84
2021/12/12 08:05:08;;;;;;;;;;;;;;;22.98;40.85;100156.44;101582;1360;76183;-83
2021/12/12 08:07:45;;;;;;;;;;;;;;;;;;;;;
2021/12/12 08:10:32;;;;;;;;;;;;;;;;;;;;;
2021/12/12 08:13:03;;;;;;;;;;;;;;;22.98;40.72;100174.17;101618;1360;72671;-84
2021/12/12 08:16:01;;;;;;;;;;;;;;;22.98;40.74;100178.09;101638;1360;76310;-84
2021/12/12 08:18:51;;;;;;;;;;;;;;;;;;;;;
2021/12/12 08:21:44;;;;;;;;;;;;;;;;;;;;;
2021/12/12 08:24:31;;;;;;;;;;;;;;;22.98;40.65;100212.70;101614;1355;71582;-83
2021/12/12 08:27:00;;;;;;;;;;;;;;;22.99;40.85;100213.37;101570;1361;61211;-82
2021/12/12 08:30:01;;;;;;;;;;;;;;;;;;;;;
2021/12/12 08:32:39;;;;;;;;;;;;;;;22.99;40.81;100228.64;101529;1355;61948;-83
2021/12/12 08:35:12;;;;;;;;;;;;;;;22.99;40.87;100229.88;101819;1355;72574;-83
2021/12/12 08:38:00;;;;;;;;;;;;;;;22.99;40.77;100223.27;101860;1355;73570;-83
2021/12/12 08:40:43;;;;;;;;;;;;;;;;;;;;;
2021/12/12 08:43:13;;;;;;;;;;;;;;;22.99;40.74;100221.84;101913;1349;61309;-84
2021/12/12 08:45:51;;;;;;;;;;;;;;;22.99;40.77;100219.70;101888;1352;72982;-83
2021/12/12 08:48:44;;;;;;;;;;;;;;;22.99;40.70;100227.54;101786;1357;73662;-83
2021/12/12 08:51:37;;;;;;;;;;;;;;;22.99;40.91;100235.45;101784;1357;61274;-83
2021/12/12 08:54:46;;;;;;;;;;;;;;;22.99;40.80;100232.21;101765;1358;59938;-84
2021/12/12 08:57:38;;;;;;;;;;;;;;;22.99;40.79;100223.63;101578;1363;72866;-84
2021/12/12 09:00:19;;;;;;;;;;;;;;;22.99;40.85;100227.16;101574;1355;74825;-83
2021/12/12 09:03:04;;;;;;;;;;;;;;;;;;;;;
2021/12/12 09:05:56;;;;;;;;;;;;;;;22.99;40.87;100223.40;101548;1360;61617;-82
2021/12/12 09:08:32;;;;;;;;;;;;;;;23.00;40.90;100218.86;101486;1362;73927;-82
2021/12/12 09:11:18;;;;;;;;;;;;;;;23.00;40.89;100224.39;101512;1360;75629;-82
2021/12/12 09:13:50;;;;;;;;;;;;;;;23.00;40.87;100234.06;101419;1363;60558;-82
2021/12/12 09:16:38;;;;;;;;;;;;;;;23.00;40.89;100240.89;101270;1363;61600;-82
2021/12/12 09:19:06;;;;;;;;;;;;;;;23.01;40.91;100249.98;101359;1360;72811;-82
2021/12/12 09:22:10;;;;;;;;;;;;;;;23.01;40.90;100262.36;101454;1360;75772;-83
2021/12/12 09:25:06;;;;;;;;;;;;;;;23.01;41.01;100274.15;100995;1364;61896;-82
2021/12/12 09:27:57;;;;;;;;;;;;;;;23.02;40.86;100284.52;100751;1366;61116;-81
2021/12/12 09:30:41;;;;;;;;;;;;;;;;;;;;;
2021/12/12 09:33:21;;;;;;;;;;;;;;;23.02;40.87;100287.75;100226;1371;74941;-82
2021/12/12 09:35:49;;;;;;;;;;;;;;;23.03;40.96;100277.65;100508;1371;61844;-82
2021/12/12 09:38:36;;;;;;;;;;;;;;;23.03;40.85;100273.66;100693;1365;61573;-82
2021/12/12 09:41:23;;;;;;;;;;;;;;;23.03;40.89;100276.72;100653;1366;72716;-82
2021/12/12 09:44:20;;;;;;;;;;;;;;;23.03;40.77;100292.50;100839;1369;75987;-82
2021/12/12 09:47:56;;;;;;;;;;;;;;;23.03;40.75;100306.33;100869;1362;61253;-84
2021/12/12 09:53:51;;;;;;;;;;;;;;;23.04;40.76;100294.95;100712;1369;71538;-83
2021/12/12 09:56:48;;;;;;;;;;;;;;;;;;;;;
2021/12/12 09:59:39;;;;;;;;;;;;;;;;;;;;;
2021/12/12 10:02:21;;;;;;;;;;;;;;;;;;;;;
2021/12/12 10:05:23;;;;;;;;;;;;;;;23.04;40.86;100271.59;100389;1372;72831;-83
2021/12/12 10:07:57;;;;;;;;;;;;;;;23.04;40.97;100278.61;100812;1368;75003;-83
2021/12/12 10:10:30;;;;;;;;;;;;;;;23.04;40.91;100282.17;101290;1366;61249;-83
2021/12/12 10:13:16;;;;;;;;;;;;;;;23.04;40.87;100280.01;101349;1366;61741;-84
2021/12/12 10:16:04;;;;;;;;;;;;;;;23.04;40.80;100280.39;101301;1366;73678;-83
2021/12/12 10:19:02;;;;;;;;;;;;;;;23.05;40.91;100293.27;101121;1366;74858;-83
2021/12/12 10:22:01;;;;;;;;;;;;;;;23.04;40.66;100285.95;100503;1373;61221;-83
2021/12/12 10:24:53;;;;;;;;;;;;;;;23.04;40.65;100283.60;100454;1369;61297;-84
2021/12/12 10:27:42;;;;;;;;;;;;;;;23.04;40.85;100276.98;100530;1372;73972;-84
2021/12/12 10:30:44;;;;;;;;;;;;;;;23.04;40.76;100293.45;100269;1373;75914;-84
2021/12/12 10:33:35;;;;;;;;;;;;;;;23.04;40.92;100306.23;100430;1368;61193;-82
2021/12/12 10:36:21;;;;;;;;;;;;;;;23.04;40.78;100312.48;101137;1363;61477;-82
2021/12/12 10:39:02;;;;;;;;;;;;;;;23.04;40.83;100314.48;101528;1357;73381;-83
2021/12/12 10:41:38;;;;;;;;;;;;;;;;;;;;;
2021/12/12 10:44:09;;;;;;;;;;;;;;;23.05;40.84;100312.45;101529;1357;61354;-83
2021/12/12 10:47:10;;;;;;;;;;;;;;;23.05;40.80;100316.36;101534;1363;61630;-83
2021/12/12 10:49:48;;;;;;;;;;;;;;;;;;;;;
2021/12/12 10:52:42;;;;;;;;;;;;;;;23.05;40.82;100315.98;101310;1361;73638;-84
2021/12/12 10:55:30;;;;;;;;;;;;;;;23.05;40.76;100321.56;101292;1359;61282;-83
2021/12/12 10:58:14;;;;;;;;;;;;;;;23.06;40.78;100323.86;100681;1368;61460;-83
2021/12/12 11:00:52;;;;;;;;;;;;;;;23.06;40.82;100333.54;101074;1368;73880;-83
2021/12/12 11:03:25;;;;;;;;;;;;;;;23.06;40.73;100342.88;101107;1366;75674;-83
2021/12/12 11:06:31;;;;;;;;;;;;;;;23.06;40.73;100354.31;101117;1367;61417;-83
2021/12/12 11:09:41;;;;;;;;;;;;;;;23.07;40.83;100357.89;100754;1369;61529;-84
2021/12/12 11:12:17;;;;;;;;;;;;;;;23.06;40.83;100357.73;100728;1366;72782;-82
2021/12/12 11:15:07;;;;;;;;;;;;;;;23.07;40.83;100360.92;100722;1369;74843;-83
2021/12/12 11:17:36;;;;;;;;;;;;;;;23.07;40.78;100357.52;100697;1370;61243;-82
2021/12/12 11:20:46;;;;;;;;;;;;;;;23.07;40.77;100354.97;100707;1369;63051;-82
2021/12/12 11:23:39;;;;;;;;;;;;;;;23.07;40.75;100350.98;100682;1368;71840;-83
2021/12/12 11:26:16;;;;;;;;;;;;;;;23.08;40.65;100359.21;101105;1360;75430;-82
2021/12/12 11:29:00;;;;;;;;;;;;;;;23.08;40.80;100358.85;100852;1368;61308;-82
2021/12/12 11:31:50;;;;;;;;;;;;;;;23.08;40.77;100357.77;100682;1369;61364;-82
2021/12/12 11:34:27;;;;;;;;;;;;;;;23.08;40.84;100350.40;100717;1368;70973;-82
2021/12/12 11:37:05;;;;;;;;;;;;;;;23.08;40.86;100346.05;101219;1357;76033;-82
2021/12/12 11:39:42;;;;;;;;;;;;;;;23.09;40.72;100343.33;101432;1358;61224;-82
2021/12/12 11:42:36;;;;;;;;;;;;;;;23.09;40.74;100340.41;101420;1355;61308;-82
2021/12/12 11:45:06;;;;;;;;;;;;;;;23.10;40.80;100346.30;101229;1364;72848;-82
2021/12/12 11:48:16;;;;;;;;;;;;;;;;;;;;;
2021/12/12 11:51:15;;;;;;;;;;;;;;;23.10;40.74;100348.81;101546;1360;61335;-83
2021/12/12 11:54:01;;;;;;;;;;;;;;;23.10;40.57;100356.65;100962;1363;61353;-83
2021/12/12 11:56:48;;;;;;;;;;;;;;;23.10;40.71;100362.02;101264;1366;72761;-83
2021/12/12 11:59:54;;;;;;;;;;;;;;;23.10;40.81;100355.95;101244;1360;75186;-84
2021/12/12 12:02:46;;;;;;;;;;;;;;;23.11;40.61;100352.67;101112;1364;61211;-82
2021/12/12 12:05:37;;;;;;;;;;;;;;;23.11;40.62;100357.52;101241;1359;61342;-83
2021/12/12 12:08:40;;;;;;;;;;;;;;;23.10;40.67;100361.67;101112;1363;72927;-82
2021/12/12 12:11:49;;;;;;;;;;;;;;;23.11;40.67;100361.85;100697;1371;74950;-82
2021/12/12 12:14:47;;;;;;;;;;;;;;;23.11;40.85;100367.92;100286;1368;61144;-82
2021/12/12 12:17:53;;;;;;;;;;;;;;;23.11;40.84;100365.05;100148;1375;62036;-83
2021/12/12 12:20:30;;;;;;;;;;;;;;;23.10;40.77;100365.77;100275;1369;72840;-82
2021/12/12 12:23:20;;;;;;;;;;;;;;;23.11;40.56;100370.77;100729;1366;74817;-83
2021/12/12 12:29:48;;;;;;;;;;;;;;;23.11;40.64;100401.67;101045;1357;61473;-83
2021/12/12 12:33:03;;;;;;;;;;;;;;;23.12;40.79;100416.88;101008;1363;72847;-83
2021/12/12 12:35:57;;;;;;;;;;;;;;;;;;;;;
2021/12/12 12:39:02;;;;;;;;;;;;;;;23.12;40.50;100431.23;101026;1363;61334;-83
2021/12/12 12:41:54;;;;;;;;;;;;;;;23.12;40.71;100432.31;100839;1369;61348;-83
2021/12/12 12:44:25;;;;;;;;;;;;;;;23.11;40.68;100436.30;100412;1372;72157;-83
2021/12/12 12:47:15;;;;;;;;;;;;;;;23.12;40.63;100438.95;100409;1372;74744;-83
2021/12/12 12:50:38;;;;;;;;;;;;;;;23.12;40.80;100432.27;100429;1374;61625;-83
2021/12/12 12:53:25;;;;;;;;;;;;;;;23.13;40.51;100436.35;101052;1362;61393;-83
2021/12/12 12:56:38;;;;;;;;;;;;;;;23.13;40.67;100438.85;100741;1369;74223;-83
2021/12/12 12:59:52;;;;;;;;;;;;;;;23.13;40.50;100437.60;101021;1363;73620;-83
2021/12/12 13:02:44;;;;;;;;;;;;;;;23.13;40.79;100439.23;100682;1366;61169;-83
2021/12/12 13:05:49;;;;;;;;;;;;;;;;;;;;;
2021/12/12 13:09:12;;;;;;;;;;;;;;;23.13;40.50;100450.85;101342;1357;74306;-83
2021/12/12 13:11:58;;;;;;;;;;;;;;;;;;;;;
2021/12/12 13:15:01;;;;;;;;;;;;;;;23.14;40.62;100458.33;101539;1356;61452;-82
2021/12/12 13:18:01;;;;;;;;;;;;;;;23.14;40.56;100455.08;101613;1357;61719;-82
2021/12/12 13:21:12;;;;;;;;;;;;;;;23.14;40.51;100453.27;101595;1349;73855;-82
2021/12/12 13:27:13;;;;;;;;;;;;;;;23.16;40.58;100439.37;101739;1358;61316;-82
2021/12/12 13:29:59;;;;;;;;;;;;;;;23.16;40.48;100438.82;101339;1363;61252;-84
2021/12/12 13:33:10;;;;;;;;;;;;;;;23.16;40.51;100432.29;101438;1357;72615;-84
2021/12/12 13:35:48;;;;;;;;;;;;;;;23.17;40.48;100428.33;101359;1364;76368;-83
2021/12/12 13:38:58;;;;;;;;;;;;;;;23.17;40.52;100427.79;101449;1358;61251;-83
2021/12/12 13:42:09;;;;;;;;;;;;;;;;;;;;;
2021/12/12 13:44:58;;;;;;;;;;;;;;;23.17;40.67;100434.36;101338;1357;73191;-83
2021/12/12 13:48:16;;;;;;;;;;;;;;;23.18;40.48;100435.24;101057;1359;74854;-83
2021/12/12 13:51:11;;;;;;;;;;;;;;;23.18;40.40;100433.06;101336;1364;61231;-84
2021/12/12 13:54:07;;;;;;;;;;;;;;;;;;;;;
2021/12/12 13:56:46;;;;;;;;;;;;;;;23.18;40.47;100429.97;100735;1369;73206;-84
2021/12/12 13:59:49;;;;;;;;;;;;;;;23.19;40.45;100440.73;100613;1371;75217;-83
2021/12/12 14:02:44;;;;;;;;;;;;;;;23.19;40.53;100450.90;100617;1369;61377;-83
2021/12/12 14:05:24;;;;;;;;;;;;;;;23.20;40.45;100450.88;100925;1367;61608;-82
2021/12/12 14:08:10;;;;;;;;;;;;;;;23.20;40.44;100449.92;101256;1357;74033;-82
2021/12/12 14:10:40;;;;;;;;;;;;;;;23.20;40.44;100452.40;101004;1360;76174;-81
2021/12/12 14:13:18;;;;;;;;;;;;;;;23.21;40.45;100455.95;100938;1362;61788;-82
2021/12/12 14:15:56;;;;;;;;;;;;;;;23.21;40.36;100465.05;100979;1366;61777;-83
2021/12/12 14:18:31;;;;;;;;;;;;;;;23.22;40.42;100463.08;100988;1360;71772;-82
2021/12/12 14:21:03;;;;;;;;;;;;;;;23.22;40.35;100468.99;100975;1366;74927;-82
2021/12/12 14:23:30;;;;;;;;;;;;;;;23.22;40.42;100471.45;101101;1366;61510;-81
2021/12/12 14:26:12;;;;;;;;;;;;;;;23.23;40.30;100474.81;100923;1369;61415;-83
2021/12/12 14:28:52;;;;;;;;;;;;;;;23.23;40.47;100479.85;101011;1362;72885;-82
2021/12/12 14:32:00;;;;;;;;;;;;;;;;;;;;;
2021/12/12 14:34:51;;;;;;;;;;;;;;;23.23;40.24;100493.65;100920;1363;61218;-82
2021/12/12 14:37:29;;;;;;;;;;;;;;;;;;;;;
2021/12/12 14:40:16;;;;;;;;;;;;;;;23.22;40.38;100498.20;100826;1365;74167;-83
2021/12/12 14:43:19;;;;;;;;;;;;;;;23.23;40.28;100505.70;101099;1360;76241;-84
2021/12/12 14:46:12;;;;;;;;;;;;;;;23.22;40.32;100512.03;101129;1366;61225;-83
2021/12/12 14:48:40;;;;;;;;;;;;;;;23.22;40.20;100514.75;101044;1364;61343;-83
2021/12/12 14:51:24;;;;;;;;;;;;;;;;;;;;;
2021/12/12 14:54:14;;;;;;;;;;;;;;;23.22;40.14;100513.48;101247;1360;75870;-82
2021/12/12 14:56:53;;;;;;;;;;;;;;;23.21;40.23;100509.77;100849;1369;63252;-83
2021/12/12 14:59:45;;;;;;;;;;;;;;;23.21;40.20;100507.97;100854;1367;61457;-83
2021/12/12 15:02:35;;;;;;;;;;;;;;;23.21;40.18;100510.30;100799;1364;72740;-83
2021/12/12 15:05:04;;;;;;;;;;;;;;;23.21;39.92;100514.81;100639;1369;76065;-82
2021/12/12 15:07:36;;;;;;;;;;;;;;;23.20;40.17;100521.35;100819;1366;61243;-83
2021/12/12 15:10:13;;;;;;;;;;;;;;;23.21;40.21;100528.48;100934;1367;312083;-82
2021/12/12 15:12:40;;;;;;;;;;;;;;;23.20;40.12;100532.88;101233;1361;73180;-83
2021/12/12 15:15:26;;;;;;;;;;;;;;;23.19;40.11;100540.85;101289;1360;74799;-82
2021/12/12 15:18:07;;;;;;;;;;;;;;;23.19;40.12;100549.10;101271;1363;61225;-82
2021/12/12 15:20:52;;;;;;;;;;;;;;;23.19;40.05;100548.75;101240;1365;61293;-83
2021/12/12 15:23:29;;;;;;;;;;;;;;;23.18;40.15;100548.09;100691;1369;73366;-82
2021/12/12 15:26:18;;;;;;;;;;;;;;;23.18;40.14;100550.23;100869;1364;75902;-83
2021/12/12 15:28:45;;;;;;;;;;;;;;;23.18;40.09;100549.51;101487;1360;61773;-83
2021/12/12 15:31:47;;;;;;;;;;;;;;;23.18;40.10;100547.96;101454;1360;61367;-83
2021/12/12 15:34:18;;;;;;;;;;;;;;;23.17;40.07;100552.13;101392;1363;71579;-84
2021/12/12 15:36:53;;;;;;;;;;;;;;;23.17;39.96;100557.31;101563;1357;74922;-83
2021/12/12 15:39:54;;;;;;;;;;;;;;;23.17;40.04;100568.98;101518;1360;61768;-83
2021/12/12 15:43:00;;;;;;;;;;;;;;;;;;;;;
2021/12/12 15:45:46;;;;;;;;;;;;;;;23.18;40.15;100572.38;101490;1356;73833;-83
2021/12/12 15:48:33;;;;;;;;;;;;;;;23.17;40.19;100573.84;101484;1355;74818;-82